sensor_id;sensor_type;location;lat;lon;timestamp;pressure;altitude;pressure_sealevel;temperature;humidity
44734;BME280;30462;52.446;-1.930;2023-03-03T00:00:18;101506.2188;;;;
44734;BME280;30462;52.446;-1.930;2023-03-03T00:01:18;101503.3359;;;;
44734;BME280;30462;52.446;-1.930;2023-03-03T00:02:18;101506.1758;;;;
44734;BME280;30462;52.446;-1.930;2023-03-03T00:03:19;101500.5742;;;;
44734;BME280;30462;52.446;-1.930;2023-03-03T00:04:18;101502.4414;;;;
44734;BME280;30462;52.446;-1.930;2023-03-03T00:05:18;101503.4141;;;;
44734;BME280;30462;52.446;-1.930;2023-03-03T00:06:19;101501.5469;;;;
44734;BME280;30462;52.446;-1.930;2023-03-03T00:07:18;101500.8984;;;;
44734;BME280;30462;52.446;-1.930;2023-03-03T00:08:19;101498.543;;;;
44734;BME280;30462;52.446;-1.930;2023-03-03T00:09:18;101494.8047;;;;
44734;BME280;30462;52.446;-1.930;2023-03-03T00:10:18;101495.7461;;;;
44734;BME280;30462;52.446;-1.930;2023-03-03T00:11:18;101499.8398;;;;
44734;BME280;30462;52.446;-1.930;2023-03-03T00:12:20;101497.7266;;;;
44734;BME280;30462;52.446;-1.930;2023-03-03T00:13:19;101502.3984;;;;
44734;BME280;30462;52.446;-1.930;2023-03-03T00:14:21;101503.8203;;;;
44734;BME280;30462;52.446;-1.930;2023-03-03T00:15:19;101506.4219;;;;
44734;BME280;30462;52.446;-1.930;2023-03-03T00:16:21;101505.7656;;;;
44734;BME280;30462;52.446;-1.930;2023-03-03T00:17:21;101512.0234;;;;
44734;BME280;30462;52.446;-1.930;2023-03-03T00:18:21;101510.9219;;;;
44734;BME280;30462;52.446;-1.930;2023-03-03T00:19:18;101507.9609;;;;
44734;BME280;30462;52.446;-1.930;2023-03-03T00:23:20;101508.3672;;;;
44734;BME280;30462;52.446;-1.930;2023-03-03T00:24:19;101507.1484;;;;
44734;BME280;30462;52.446;-1.930;2023-03-03T00:26:19;101505.7656;;;;
44734;BME280;30462;52.446;-1.930;2023-03-03T00:27:23;101503.3711;;;;
44734;BME280;30462;52.446;-1.930;2023-03-03T00:30:19;101493.5938;;;;
44734;BME280;30462;52.446;-1.930;2023-03-03T00:31:22;101501.5117;;;;
44734;BME280;30462;52.446;-1.930;2023-03-03T00:32:21;101498.6641;;;;
44734;BME280;30462;52.446;-1.930;2023-03-03T00:33:21;101499.0313;;;;
44734;BME280;30462;52.446;-1.930;2023-03-03T00:34:23;101501.3047;;;;
44734;BME280;30462;52.446;-1.930;2023-03-03T00:35:21;101501.5117;;;;
44734;BME280;30462;52.446;-1.930;2023-03-03T00:37:21;101501.9531;;;;
44734;BME280;30462;52.446;-1.930;2023-03-03T00:38:18;101501.9141;;;;
44734;BME280;30462;52.446;-1.930;2023-03-03T00:39:23;101500.332;;;;
44734;BME280;30462;52.446;-1.930;2023-03-03T00:40:20;101501.7109;;;;
44734;BME280;30462;52.446;-1.930;2023-03-03T00:41:21;101505.7695;;;;
44734;BME280;30462;52.446;-1.930;2023-03-03T00:42:18;101497.3281;;;;
44734;BME280;30462;52.446;-1.930;2023-03-03T00:43:19;101499.1953;;;;
44734;BME280;30462;52.446;-1.930;2023-03-03T00:46:18;101505.2422;;;;
44734;BME280;30462;52.446;-1.930;2023-03-03T00:48:21;101506.418;;;;
44734;BME280;30462;52.446;-1.930;2023-03-03T00:49:20;101501.7109;;;;
44734;BME280;30462;52.446;-1.930;2023-03-03T00:52:18;101501.0625;;;;
44734;BME280;30462;52.446;-1.930;2023-03-03T00:53:18;101499.2344;;;;
44734;BME280;30462;52.446;-1.930;2023-03-03T00:54:18;101502.5625;;;;
44734;BME280;30462;52.446;-1.930;2023-03-03T00:55:18;101505.2422;;;;
44734;BME280;30462;52.446;-1.930;2023-03-03T00:56:18;101502.9727;;;;
44734;BME280;30462;52.446;-1.930;2023-03-03T00:57:18;101504.6328;;;;
44734;BME280;30462;52.446;-1.930;2023-03-03T00:58:18;101502.3555;;;;
44734;BME280;30462;52.446;-1.930;2023-03-03T00:59:18;101505.8867;;;;
44734;BME280;30462;52.446;-1.930;2023-03-03T01:00:18;101504.0195;;;;
44734;BME280;30462;52.446;-1.930;2023-03-03T01:01:19;101508.1602;;;;
44734;BME280;30462;52.446;-1.930;2023-03-03T01:02:18;101505.5703;;;;
44734;BME280;30462;52.446;-1.930;2023-03-03T01:03:19;101506.2148;;;;
44734;BME280;30462;52.446;-1.930;2023-03-03T01:04:18;101505.8125;;;;
44734;BME280;30462;52.446;-1.930;2023-03-03T01:05:19;101506.9844;;;;
44734;BME280;30462;52.446;-1.930;2023-03-03T01:06:18;101508.4492;;;;
44734;BME280;30462;52.446;-1.930;2023-03-03T01:07:18;101513.6836;;;;
44734;BME280;30462;52.446;-1.930;2023-03-03T01:08:18;101511.4922;;;;
44734;BME280;30462;52.446;-1.930;2023-03-03T01:09:18;101510.8828;;;;
44734;BME280;30462;52.446;-1.930;2023-03-03T01:10:18;101509.6641;;;;
44734;BME280;30462;52.446;-1.930;2023-03-03T01:11:19;101511.9453;;;;
44734;BME280;30462;52.446;-1.930;2023-03-03T01:12:18;101509.6289;;;;
44734;BME280;30462;52.446;-1.930;2023-03-03T01:13:18;101513.1172;;;;
44734;BME280;30462;52.446;-1.930;2023-03-03T01:14:18;101511.8984;;;;
44734;BME280;30462;52.446;-1.930;2023-03-03T01:15:18;101514.9063;;;;
44734;BME280;30462;52.446;-1.930;2023-03-03T01:16:18;101512.9531;;;;
44734;BME280;30462;52.446;-1.930;2023-03-03T01:17:18;101514.0938;;;;
44734;BME280;30462;52.446;-1.930;2023-03-03T01:18:18;101513.0781;;;;
44734;BME280;30462;52.446;-1.930;2023-03-03T01:19:17;101514.4531;;;;
44734;BME280;30462;52.446;-1.930;2023-03-03T01:20:18;101515.1055;;;;
44734;BME280;30462;52.446;-1.930;2023-03-03T01:21:18;101514.293;;;;
44734;BME280;30462;52.446;-1.930;2023-03-03T01:22:18;101516.7734;;;;
44734;BME280;30462;52.446;-1.930;2023-03-03T01:23:18;101515.3516;;;;
44734;BME280;30462;52.446;-1.930;2023-03-03T01:24:18;101516.9766;;;;
44734;BME280;30462;52.446;-1.930;2023-03-03T01:25:18;101515.7969;;;;
44734;BME280;30462;52.446;-1.930;2023-03-03T01:26:18;101521.4805;;;;
44734;BME280;30462;52.446;-1.930;2023-03-03T01:27:18;101517.2188;;;;
44734;BME280;30462;52.446;-1.930;2023-03-03T01:28:18;101520.4219;;;;
44734;BME280;30462;52.446;-1.930;2023-03-03T01:29:18;101524.1563;;;;
44734;BME280;30462;52.446;-1.930;2023-03-03T01:30:18;101522.8594;;;;
44734;BME280;30462;52.446;-1.930;2023-03-03T01:31:18;101521.3125;;;;
44734;BME280;30462;52.446;-1.930;2023-03-03T01:32:18;101524.4805;;;;
44734;BME280;30462;52.446;-1.930;2023-03-03T01:33:18;101522.3672;;;;
44734;BME280;30462;52.446;-1.930;2023-03-03T01:34:18;101521.0313;;;;
44734;BME280;30462;52.446;-1.930;2023-03-03T01:35:18;101523.5039;;;;
44734;BME280;30462;52.446;-1.930;2023-03-03T01:37:18;101522.4492;;;;
44734;BME280;30462;52.446;-1.930;2023-03-03T01:38:18;101521.7656;;;;
44734;BME280;30462;52.446;-1.930;2023-03-03T01:39:18;101524.2383;;;;
44734;BME280;30462;52.446;-1.930;2023-03-03T01:40:19;101522.8555;;;;
44734;BME280;30462;52.446;-1.930;2023-03-03T01:41:18;101523.9492;;;;
44734;BME280;30462;52.446;-1.930;2023-03-03T01:42:18;101523.0977;;;;
44734;BME280;30462;52.446;-1.930;2023-03-03T01:43:18;101521.0273;;;;
44734;BME280;30462;52.446;-1.930;2023-03-03T01:44:18;101517.6953;;;;
44734;BME280;30462;52.446;-1.930;2023-03-03T01:45:19;101518.2266;;;;
44734;BME280;30462;52.446;-1.930;2023-03-03T01:47:18;101526.0625;;;;
44734;BME280;30462;52.446;-1.930;2023-03-03T01:48:23;101522.5313;;;;
44734;BME280;30462;52.446;-1.930;2023-03-03T01:49:18;101525.4883;;;;
44734;BME280;30462;52.446;-1.930;2023-03-03T01:50:20;101523.707;;;;
44734;BME280;30462;52.446;-1.930;2023-03-03T01:51:21;101531.6172;;;;
44734;BME280;30462;52.446;-1.930;2023-03-03T01:52:21;101526.7461;;;;
44734;BME280;30462;52.446;-1.930;2023-03-03T01:53:18;101530.5938;;;;
44734;BME280;30462;52.446;-1.930;2023-03-03T01:54:19;101529.3438;;;;
44734;BME280;30462;52.446;-1.930;2023-03-03T01:55:19;101531.7031;;;;
44734;BME280;30462;52.446;-1.930;2023-03-03T01:56:18;101531.8984;;;;
44734;BME280;30462;52.446;-1.930;2023-03-03T01:57:18;101530.6836;;;;
44734;BME280;30462;52.446;-1.930;2023-03-03T01:58:20;101529.1367;;;;
44734;BME280;30462;52.446;-1.930;2023-03-03T01:59:19;101529.3359;;;;
44734;BME280;30462;52.446;-1.930;2023-03-03T02:00:18;101521.5078;;;;
44734;BME280;30462;52.446;-1.930;2023-03-03T02:01:19;101528.0742;;;;
44734;BME280;30462;52.446;-1.930;2023-03-03T02:02:18;101527.4727;;;;
44734;BME280;30462;52.446;-1.930;2023-03-03T02:03:18;101527.9648;;;;
44734;BME280;30462;52.446;-1.930;2023-03-03T02:04:18;101528.9688;;;;
44734;BME280;30462;52.446;-1.930;2023-03-03T02:05:18;101530.5039;;;;
44734;BME280;30462;52.446;-1.930;2023-03-03T02:06:19;101528.3945;;;;
44734;BME280;30462;52.446;-1.930;2023-03-03T02:07:18;101533.1484;;;;
44734;BME280;30462;52.446;-1.930;2023-03-03T02:08:19;101532.4609;;;;
44734;BME280;30462;52.446;-1.930;2023-03-03T02:09:22;101532.0156;;;;
44734;BME280;30462;52.446;-1.930;2023-03-03T02:10:18;101529.3398;;;;
44734;BME280;30462;52.446;-1.930;2023-03-03T02:11:19;101529.1016;;;;
44734;BME280;30462;52.446;-1.930;2023-03-03T02:12:18;101529.9922;;;;
44734;BME280;30462;52.446;-1.930;2023-03-03T02:13:18;101529.0625;;;;
44734;BME280;30462;52.446;-1.930;2023-03-03T02:14:18;101528.0313;;;;
44734;BME280;30462;52.446;-1.930;2023-03-03T02:15:19;101529.9805;;;;
44734;BME280;30462;52.446;-1.930;2023-03-03T02:16:18;101523.8555;;;;
44734;BME280;30462;52.446;-1.930;2023-03-03T02:17:18;101529.707;;;;
44734;BME280;30462;52.446;-1.930;2023-03-03T02:18:18;101528.1211;;;;
44734;BME280;30462;52.446;-1.930;2023-03-03T02:19:21;101523.9063;;;;
44734;BME280;30462;52.446;-1.930;2023-03-03T02:21:20;101526.0039;;;;
44734;BME280;30462;52.446;-1.930;2023-03-03T02:22:20;101527.9141;;;;
44734;BME280;30462;52.446;-1.930;2023-03-03T02:23:21;101532.7852;;;;
44734;BME280;30462;52.446;-1.930;2023-03-03T02:24:24;101529.6055;;;;
44734;BME280;30462;52.446;-1.930;2023-03-03T02:25:20;101528.7188;;;;
44734;BME280;30462;52.446;-1.930;2023-03-03T02:26:20;101529.1602;;;;
44734;BME280;30462;52.446;-1.930;2023-03-03T02:27:18;101529.8516;;;;
44734;BME280;30462;52.446;-1.930;2023-03-03T02:28:18;101528.1094;;;;
44734;BME280;30462;52.446;-1.930;2023-03-03T02:29:18;101526.0391;;;;
44734;BME280;30462;52.446;-1.930;2023-03-03T02:30:20;101527.7813;;;;
44734;BME280;30462;52.446;-1.930;2023-03-03T02:31:19;101529.0781;;;;
44734;BME280;30462;52.446;-1.930;2023-03-03T02:32:18;101530.1719;;;;
44734;BME280;30462;52.446;-1.930;2023-03-03T02:33:18;101530.1719;;;;
44734;BME280;30462;52.446;-1.930;2023-03-03T02:34:18;101529.6055;;;;
44734;BME280;30462;52.446;-1.930;2023-03-03T02:36:19;101529.2969;;;;
44734;BME280;30462;52.446;-1.930;2023-03-03T02:37:18;101525.5664;;;;
44734;BME280;30462;52.446;-1.930;2023-03-03T02:38:20;101527.0625;;;;
44734;BME280;30462;52.446;-1.930;2023-03-03T02:39:19;101524.4297;;;;
44734;BME280;30462;52.446;-1.930;2023-03-03T02:40:18;101521.9883;;;;
44734;BME280;30462;52.446;-1.930;2023-03-03T02:42:19;101528.5234;;;;
44734;BME280;30462;52.446;-1.930;2023-03-03T02:43:18;101524.9883;;;;
44734;BME280;30462;52.446;-1.930;2023-03-03T02:44:18;101528.2344;;;;
44734;BME280;30462;52.446;-1.930;2023-03-03T02:45:17;101527.0898;;;;
44734;BME280;30462;52.446;-1.930;2023-03-03T02:46:18;101532.0391;;;;
44734;BME280;30462;52.446;-1.930;2023-03-03T02:47:18;101526.0352;;;;
44734;BME280;30462;52.446;-1.930;2023-03-03T02:48:18;101527.6641;;;;
44734;BME280;30462;52.446;-1.930;2023-03-03T02:49:19;101526.7734;;;;
44734;BME280;30462;52.446;-1.930;2023-03-03T02:50:18;101526.25;;;;
44734;BME280;30462;52.446;-1.930;2023-03-03T02:51:18;101526.9805;;;;
44734;BME280;30462;52.446;-1.930;2023-03-03T02:52:18;101527.0664;;;;
44734;BME280;30462;52.446;-1.930;2023-03-03T02:53:19;101528.5664;;;;
44734;BME280;30462;52.446;-1.930;2023-03-03T02:54:18;101529.7031;;;;
44734;BME280;30462;52.446;-1.930;2023-03-03T02:55:18;101530.5977;;;;
44734;BME280;30462;52.446;-1.930;2023-03-03T02:56:18;101528.7305;;;;
44734;BME280;30462;52.446;-1.930;2023-03-03T02:57:17;101531.0391;;;;
44734;BME280;30462;52.446;-1.930;2023-03-03T02:58:18;101529.8633;;;;
44734;BME280;30462;52.446;-1.930;2023-03-03T02:59:18;101531.9297;;;;
44734;BME280;30462;52.446;-1.930;2023-03-03T03:00:18;101525.4453;;;;
44734;BME280;30462;52.446;-1.930;2023-03-03T03:01:18;101531.2813;;;;
44734;BME280;30462;52.446;-1.930;2023-03-03T03:02:20;101535.9453;;;;
44734;BME280;30462;52.446;-1.930;2023-03-03T03:03:18;101533.1836;;;;
44734;BME280;30462;52.446;-1.930;2023-03-03T03:04:18;101535.2188;;;;
44734;BME280;30462;52.446;-1.930;2023-03-03T03:05:18;101533.7188;;;;
44734;BME280;30462;52.446;-1.930;2023-03-03T03:06:19;101530.9609;;;;
44734;BME280;30462;52.446;-1.930;2023-03-03T03:07:18;101534.8086;;;;
44734;BME280;30462;52.446;-1.930;2023-03-03T03:08:18;101537;;;;
44734;BME280;30462;52.446;-1.930;2023-03-03T03:09:18;101534.4023;;;;
44734;BME280;30462;52.446;-1.930;2023-03-03T03:10:18;101531.9336;;;;
44734;BME280;30462;52.446;-1.930;2023-03-03T03:11:18;101530.6797;;;;
44734;BME280;30462;52.446;-1.930;2023-03-03T03:12:18;101533.7656;;;;
44734;BME280;30462;52.446;-1.930;2023-03-03T03:13:18;101533.9688;;;;
44734;BME280;30462;52.446;-1.930;2023-03-03T03:14:17;101531.8125;;;;
44734;BME280;30462;52.446;-1.930;2023-03-03T03:15:18;101530.8672;;;;
44734;BME280;30462;52.446;-1.930;2023-03-03T03:16:18;101531.4727;;;;
44734;BME280;30462;52.446;-1.930;2023-03-03T03:17:18;101532.3672;;;;
44734;BME280;30462;52.446;-1.930;2023-03-03T03:18:18;101534.3555;;;;
44734;BME280;30462;52.446;-1.930;2023-03-03T03:19:18;101531.8594;;;;
44734;BME280;30462;52.446;-1.930;2023-03-03T03:20:18;101535.4688;;;;
44734;BME280;30462;52.446;-1.930;2023-03-03T03:21:18;101535.5078;;;;
44734;BME280;30462;52.446;-1.930;2023-03-03T03:22:18;101535.2969;;;;
44734;BME280;30462;52.446;-1.930;2023-03-03T03:23:18;101534.9727;;;;
44734;BME280;30462;52.446;-1.930;2023-03-03T03:24:18;101535.6641;;;;
44734;BME280;30462;52.446;-1.930;2023-03-03T03:25:18;101534.7656;;;;
44734;BME280;30462;52.446;-1.930;2023-03-03T03:26:17;101529.7734;;;;
44734;BME280;30462;52.446;-1.930;2023-03-03T03:27:17;101530.5859;;;;
44734;BME280;30462;52.446;-1.930;2023-03-03T03:28:17;101530.3086;;;;
44734;BME280;30462;52.446;-1.930;2023-03-03T03:29:18;101529.207;;;;
44734;BME280;30462;52.446;-1.930;2023-03-03T03:30:18;101530.4336;;;;
44734;BME280;30462;52.446;-1.930;2023-03-03T03:31:19;101532.1367;;;;
44734;BME280;30462;52.446;-1.930;2023-03-03T03:32:18;101528.9922;;;;
44734;BME280;30462;52.446;-1.930;2023-03-03T03:33:18;101524.9414;;;;
44734;BME280;30462;52.446;-1.930;2023-03-03T03:34:18;101532.0117;;;;
44734;BME280;30462;52.446;-1.930;2023-03-03T03:35:18;101532.1797;;;;
44734;BME280;30462;52.446;-1.930;2023-03-03T03:36:18;101530.625;;;;
44734;BME280;30462;52.446;-1.930;2023-03-03T03:37:18;101531.7305;;;;
44734;BME280;30462;52.446;-1.930;2023-03-03T03:38:18;101533.9922;;;;
44734;BME280;30462;52.446;-1.930;2023-03-03T03:39:18;101533.9609;;;;
44734;BME280;30462;52.446;-1.930;2023-03-03T03:40:17;101533.4844;;;;
44734;BME280;30462;52.446;-1.930;2023-03-03T03:41:18;101532.1133;;;;
44734;BME280;30462;52.446;-1.930;2023-03-03T03:42:18;101538.0469;;;;
44734;BME280;30462;52.446;-1.930;2023-03-03T03:43:18;101535;;;;
44734;BME280;30462;52.446;-1.930;2023-03-03T03:44:18;101534.5859;;;;
44734;BME280;30462;52.446;-1.930;2023-03-03T03:45:18;101532.3203;;;;
44734;BME280;30462;52.446;-1.930;2023-03-03T03:46:18;101533.5313;;;;
44734;BME280;30462;52.446;-1.930;2023-03-03T03:47:18;101533.0781;;;;
44734;BME280;30462;52.446;-1.930;2023-03-03T03:48:18;101533.0703;;;;
44734;BME280;30462;52.446;-1.930;2023-03-03T03:49:18;101534.8945;;;;
44734;BME280;30462;52.446;-1.930;2023-03-03T03:50:18;101534;;;;
44734;BME280;30462;52.446;-1.930;2023-03-03T03:51:18;101532.0938;;;;
44734;BME280;30462;52.446;-1.930;2023-03-03T03:52:18;101525.8086;;;;
44734;BME280;30462;52.446;-1.930;2023-03-03T03:53:18;101530.957;;;;
44734;BME280;30462;52.446;-1.930;2023-03-03T03:54:18;101530.9609;;;;
44734;BME280;30462;52.446;-1.930;2023-03-03T03:55:18;101525.1602;;;;
44734;BME280;30462;52.446;-1.930;2023-03-03T03:56:18;101525.6914;;;;
44734;BME280;30462;52.446;-1.930;2023-03-03T03:57:18;101522.7656;;;;
44734;BME280;30462;52.446;-1.930;2023-03-03T03:58:18;101525.207;;;;
44734;BME280;30462;52.446;-1.930;2023-03-03T03:59:18;101525.457;;;;
44734;BME280;30462;52.446;-1.930;2023-03-03T04:00:18;101522.8594;;;;
44734;BME280;30462;52.446;-1.930;2023-03-03T04:01:18;101523.625;;;;
44734;BME280;30462;52.446;-1.930;2023-03-03T04:02:18;101518.6758;;;;
44734;BME280;30462;52.446;-1.930;2023-03-03T04:03:18;101519.4883;;;;
44734;BME280;30462;52.446;-1.930;2023-03-03T04:04:18;101521.4375;;;;
44734;BME280;30462;52.446;-1.930;2023-03-03T04:05:18;101521.3125;;;;
44734;BME280;30462;52.446;-1.930;2023-03-03T04:06:18;101520.957;;;;
44734;BME280;30462;52.446;-1.930;2023-03-03T04:07:18;101517.5078;;;;
44734;BME280;30462;52.446;-1.930;2023-03-03T04:08:18;101518.6094;;;;
44734;BME280;30462;52.446;-1.930;2023-03-03T04:09:18;101519.4609;;;;
44734;BME280;30462;52.446;-1.930;2023-03-03T04:10:18;101519.3398;;;;
44734;BME280;30462;52.446;-1.930;2023-03-03T04:11:18;101518.7344;;;;
44734;BME280;30462;52.446;-1.930;2023-03-03T04:12:18;101518.0859;;;;
44734;BME280;30462;52.446;-1.930;2023-03-03T04:13:18;101516.9492;;;;
44734;BME280;30462;52.446;-1.930;2023-03-03T04:14:17;101514.4805;;;;
44734;BME280;30462;52.446;-1.930;2023-03-03T04:15:18;101520.5625;;;;
44734;BME280;30462;52.446;-1.930;2023-03-03T04:16:18;101514.3164;;;;
44734;BME280;30462;52.446;-1.930;2023-03-03T04:17:18;101519.0234;;;;
44734;BME280;30462;52.446;-1.930;2023-03-03T04:18:18;101515.9727;;;;
44734;BME280;30462;52.446;-1.930;2023-03-03T04:19:18;101520.7617;;;;
44734;BME280;30462;52.446;-1.930;2023-03-03T04:20:18;101518.1172;;;;
44734;BME280;30462;52.446;-1.930;2023-03-03T04:21:17;101516.3359;;;;
44734;BME280;30462;52.446;-1.930;2023-03-03T04:22:18;101519.2188;;;;
44734;BME280;30462;52.446;-1.930;2023-03-03T04:23:18;101517.2813;;;;
44734;BME280;30462;52.446;-1.930;2023-03-03T04:24:18;101519.3438;;;;
44734;BME280;30462;52.446;-1.930;2023-03-03T04:25:18;101519.2656;;;;
44734;BME280;30462;52.446;-1.930;2023-03-03T04:26:18;101518.332;;;;
44734;BME280;30462;52.446;-1.930;2023-03-03T04:27:18;101519.0977;;;;
44734;BME280;30462;52.446;-1.930;2023-03-03T04:28:18;101519.875;;;;
44734;BME280;30462;52.446;-1.930;2023-03-03T04:29:17;101523.5664;;;;
44734;BME280;30462;52.446;-1.930;2023-03-03T04:30:18;101524.2852;;;;
44734;BME280;30462;52.446;-1.930;2023-03-03T04:31:18;101521.4961;;;;
44734;BME280;30462;52.446;-1.930;2023-03-03T04:32:18;101521.1758;;;;
44734;BME280;30462;52.446;-1.930;2023-03-03T04:33:18;101522.1133;;;;
44734;BME280;30462;52.446;-1.930;2023-03-03T04:34:18;101520.4844;;;;
44734;BME280;30462;52.446;-1.930;2023-03-03T04:35:18;101519.2695;;;;
44734;BME280;30462;52.446;-1.930;2023-03-03T04:36:18;101519.1484;;;;
44734;BME280;30462;52.446;-1.930;2023-03-03T04:37:18;101522.0273;;;;
44734;BME280;30462;52.446;-1.930;2023-03-03T04:38:18;101518.5391;;;;
44734;BME280;30462;52.446;-1.930;2023-03-03T04:39:18;101520.8594;;;;
44734;BME280;30462;52.446;-1.930;2023-03-03T04:40:18;101520.4141;;;;
44734;BME280;30462;52.446;-1.930;2023-03-03T04:41:18;101519.7617;;;;
44734;BME280;30462;52.446;-1.930;2023-03-03T04:42:18;101516.6016;;;;
44734;BME280;30462;52.446;-1.930;2023-03-03T04:43:18;101521.7891;;;;
44734;BME280;30462;52.446;-1.930;2023-03-03T04:44:18;101519.2305;;;;
44734;BME280;30462;52.446;-1.930;2023-03-03T04:45:18;101521.8711;;;;
44734;BME280;30462;52.446;-1.930;2023-03-03T04:46:18;101520.7813;;;;
44734;BME280;30462;52.446;-1.930;2023-03-03T04:47:18;101521.5508;;;;
44734;BME280;30462;52.446;-1.930;2023-03-03T04:48:18;101520.6211;;;;
44734;BME280;30462;52.446;-1.930;2023-03-03T04:49:18;101522.0469;;;;
44734;BME280;30462;52.446;-1.930;2023-03-03T04:50:18;101521.4766;;;;
44734;BME280;30462;52.446;-1.930;2023-03-03T04:51:18;101522.168;;;;
44734;BME280;30462;52.446;-1.930;2023-03-03T04:52:18;101520.1797;;;;
44734;BME280;30462;52.446;-1.930;2023-03-03T04:53:18;101524.4727;;;;
44734;BME280;30462;52.446;-1.930;2023-03-03T04:54:18;101517.7383;;;;
44734;BME280;30462;52.446;-1.930;2023-03-03T04:55:17;101520.9844;;;;
44734;BME280;30462;52.446;-1.930;2023-03-03T04:56:18;101518.6289;;;;
44734;BME280;30462;52.446;-1.930;2023-03-03T04:57:18;101519.7695;;;;
44734;BME280;30462;52.446;-1.930;2023-03-03T04:58:18;101520.1328;;;;
44734;BME280;30462;52.446;-1.930;2023-03-03T04:59:18;101523.8633;;;;
44734;BME280;30462;52.446;-1.930;2023-03-03T05:00:18;101523.9688;;;;
44734;BME280;30462;52.446;-1.930;2023-03-03T05:01:18;101521.4219;;;;
44734;BME280;30462;52.446;-1.930;2023-03-03T05:02:18;101523.9336;;;;
44734;BME280;30462;52.446;-1.930;2023-03-03T05:03:19;101524.1289;;;;
44734;BME280;30462;52.446;-1.930;2023-03-03T05:04:18;101524.7422;;;;
44734;BME280;30462;52.446;-1.930;2023-03-03T05:05:18;101529.4063;;;;
44734;BME280;30462;52.446;-1.930;2023-03-03T05:06:18;101528.4727;;;;
44734;BME280;30462;52.446;-1.930;2023-03-03T05:07:18;101530.9922;;;;
44734;BME280;30462;52.446;-1.930;2023-03-03T05:08:18;101531.1523;;;;
44734;BME280;30462;52.446;-1.930;2023-03-03T05:09:18;101528.8789;;;;
44734;BME280;30462;52.446;-1.930;2023-03-03T05:10:18;101529.1563;;;;
44734;BME280;30462;52.446;-1.930;2023-03-03T05:11:18;101529.7656;;;;
44734;BME280;30462;52.446;-1.930;2023-03-03T05:12:18;101533.707;;;;
44734;BME280;30462;52.446;-1.930;2023-03-03T05:13:18;101525.875;;;;
44734;BME280;30462;52.446;-1.930;2023-03-03T05:14:18;101528.207;;;;
44734;BME280;30462;52.446;-1.930;2023-03-03T05:15:18;101528.7422;;;;
44734;BME280;30462;52.446;-1.930;2023-03-03T05:16:17;101529.4727;;;;
44734;BME280;30462;52.446;-1.930;2023-03-03T05:17:18;101529.1094;;;;
44734;BME280;30462;52.446;-1.930;2023-03-03T05:18:18;101531.4063;;;;
44734;BME280;30462;52.446;-1.930;2023-03-03T05:19:18;101533.6406;;;;
44734;BME280;30462;52.446;-1.930;2023-03-03T05:20:18;101535.2734;;;;
44734;BME280;30462;52.446;-1.930;2023-03-03T05:21:18;101532.6016;;;;
44734;BME280;30462;52.446;-1.930;2023-03-03T05:22:18;101529.9727;;;;
44734;BME280;30462;52.446;-1.930;2023-03-03T05:23:18;101529.9297;;;;
44734;BME280;30462;52.446;-1.930;2023-03-03T05:24:18;101530.7344;;;;
44734;BME280;30462;52.446;-1.930;2023-03-03T05:25:18;101530.5703;;;;
44734;BME280;30462;52.446;-1.930;2023-03-03T05:26:18;101533.6875;;;;
44734;BME280;30462;52.446;-1.930;2023-03-03T05:27:18;101534.8711;;;;
44734;BME280;30462;52.446;-1.930;2023-03-03T05:28:18;101536.4883;;;;
44734;BME280;30462;52.446;-1.930;2023-03-03T05:29:18;101533.25;;;;
44734;BME280;30462;52.446;-1.930;2023-03-03T05:30:18;101538.4336;;;;
44734;BME280;30462;52.446;-1.930;2023-03-03T05:31:18;101541.9766;;;;
44734;BME280;30462;52.446;-1.930;2023-03-03T05:32:18;101535.0664;;;;
44734;BME280;30462;52.446;-1.930;2023-03-03T05:33:18;101536.9219;;;;
44734;BME280;30462;52.446;-1.930;2023-03-03T05:34:18;101536.3984;;;;
44734;BME280;30462;52.446;-1.930;2023-03-03T05:35:18;101535.8711;;;;
44734;BME280;30462;52.446;-1.930;2023-03-03T05:36:18;101536.3242;;;;
44734;BME280;30462;52.446;-1.930;2023-03-03T05:37:18;101531.1328;;;;
44734;BME280;30462;52.446;-1.930;2023-03-03T05:38:18;101536.8633;;;;
44734;BME280;30462;52.446;-1.930;2023-03-03T05:39:18;101539.1758;;;;
44734;BME280;30462;52.446;-1.930;2023-03-03T05:40:18;101535.082;;;;
44734;BME280;30462;52.446;-1.930;2023-03-03T05:41:18;101537.5508;;;;
44734;BME280;30462;52.446;-1.930;2023-03-03T05:42:18;101540.1523;;;;
44734;BME280;30462;52.446;-1.930;2023-03-03T05:43:18;101539.8984;;;;
44734;BME280;30462;52.446;-1.930;2023-03-03T05:44:18;101535.3984;;;;
44734;BME280;30462;52.446;-1.930;2023-03-03T05:45:18;101538.5703;;;;
44734;BME280;30462;52.446;-1.930;2023-03-03T05:46:18;101537.7227;;;;
44734;BME280;30462;52.446;-1.930;2023-03-03T05:47:18;101536.3828;;;;
44734;BME280;30462;52.446;-1.930;2023-03-03T05:48:18;101537.0742;;;;
44734;BME280;30462;52.446;-1.930;2023-03-03T05:49:18;101534.6758;;;;
44734;BME280;30462;52.446;-1.930;2023-03-03T05:50:18;101536.9023;;;;
44734;BME280;30462;52.446;-1.930;2023-03-03T05:51:18;101538.1094;;;;
44734;BME280;30462;52.446;-1.930;2023-03-03T05:52:18;101536.5625;;;;
44734;BME280;30462;52.446;-1.930;2023-03-03T05:53:18;101537.668;;;;
44734;BME280;30462;52.446;-1.930;2023-03-03T05:54:18;101536.1992;;;;
44734;BME280;30462;52.446;-1.930;2023-03-03T05:55:18;101537.9922;;;;
44734;BME280;30462;52.446;-1.930;2023-03-03T05:56:18;101539.125;;;;
44734;BME280;30462;52.446;-1.930;2023-03-03T05:57:18;101540.1094;;;;
44734;BME280;30462;52.446;-1.930;2023-03-03T05:58:18;101538.3281;;;;
44734;BME280;30462;52.446;-1.930;2023-03-03T05:59:18;101539.9063;;;;
44734;BME280;30462;52.446;-1.930;2023-03-03T06:00:19;101533.7383;;;;
44734;BME280;30462;52.446;-1.930;2023-03-03T06:01:18;101541.3594;;;;
44734;BME280;30462;52.446;-1.930;2023-03-03T06:02:18;101539.6172;;;;